Alix, Arkansas
Current Conditions -  °F | °C
As of 9:53 AM on Monday 24 Nov 2014 (Local Time) from KFSM Reporting Station
Clear Clear  
Wind Chill: 50°   Ceiling: Unl
Heat Index: 50°   Visibility: 10mi
Dew Point: 30°   Wind: 14mph
Humidity: 46%   Direction: 280°W
Pressure: 29.93"   Gusts: NA
Location:  35.43°N, 93.73°W
Report Text: KFSM 241553Z 28012KT 10SM CLR 10/M01 A2993 RMK AO2 SLP134 T01001011
Loading
Personal Weather Stations






























Interactive Weather Map New forecast layout! Learn more

10-Day Weather Forecast

Advertisements
Track Severe Weather on mobile